createdAt,value
2022-09-03T00:00:56.676Z,12.55
2022-09-03T00:03:31.156Z,12.55
2022-09-03T00:06:13.835Z,12.57
2022-09-03T00:08:49.532Z,12.59
2022-09-03T00:11:22.573Z,12.65
2022-09-03T00:13:58.434Z,12.67
2022-09-03T00:16:32.285Z,12.73
2022-09-03T00:19:04.867Z,12.77
2022-09-03T00:21:40.674Z,12.83
2022-09-03T00:24:15.143Z,12.84
2022-09-03T00:26:49.313Z,12.85
2022-09-03T00:29:20.954Z,12.87
2022-09-03T00:31:52.734Z,12.88
2022-09-03T00:34:26.991Z,12.90
2022-09-03T00:36:57.386Z,12.91
2022-09-03T00:39:28.143Z,12.92
2022-09-03T00:42:13.288Z,12.91
2022-09-03T00:44:55.617Z,12.90
2022-09-03T00:47:31.135Z,12.88
2022-09-03T00:50:09.275Z,12.86
2022-09-03T00:52:47.616Z,12.81
2022-09-03T00:55:27.358Z,12.78
2022-09-03T00:58:11.445Z,12.72
2022-09-03T01:00:42.714Z,12.68
2022-09-03T01:03:14.586Z,12.63
2022-09-03T01:06:01.417Z,12.55
2022-09-03T01:08:52.495Z,12.50
2022-09-03T01:11:31.737Z,12.46
2022-09-03T01:14:10.326Z,12.40
2022-09-03T01:16:46.634Z,12.33
2022-09-03T01:19:45.283Z,12.30
2022-09-03T01:22:35.744Z,12.18
2022-09-03T01:25:17.742Z,12.11
2022-09-03T01:28:03.214Z,12.12
2022-09-03T01:30:34.964Z,12.03
2022-09-03T01:33:12.475Z,11.93
2022-09-03T01:35:48.332Z,11.84
2022-09-03T01:38:27.994Z,11.75
2022-09-03T01:41:24.725Z,11.64
2022-09-03T01:44:06.664Z,11.61
2022-09-03T01:46:40.391Z,11.63
2022-09-03T01:49:22.876Z,11.65
2022-09-03T01:52:03.902Z,11.63
2022-09-03T01:54:50.461Z,11.59
2022-09-03T01:57:37.025Z,11.63
2022-09-03T02:00:13.223Z,11.61
2022-09-03T02:02:43.594Z,11.63
2022-09-03T02:05:14.994Z,11.63
2022-09-03T02:07:45.425Z,11.62
2022-09-03T02:10:16.874Z,11.52
2022-09-03T02:12:49.374Z,11.45
2022-09-03T02:15:22.599Z,11.41
2022-09-03T02:17:55.574Z,11.43
2022-09-03T02:20:28.532Z,11.44
2022-09-03T02:22:58.744Z,11.36
2022-09-03T02:25:34.094Z,11.24
2022-09-03T02:28:03.692Z,11.16
2022-09-03T02:30:33.279Z,11.14
2022-09-03T02:33:02.205Z,11.09
2022-09-03T02:35:30.382Z,11.06
2022-09-03T02:37:58.756Z,11.07
2022-09-03T02:40:26.905Z,11.10
2022-09-03T02:42:55.235Z,11.18
2022-09-03T02:45:28.552Z,11.18
2022-09-03T02:48:01.302Z,11.17
2022-09-03T02:50:29.635Z,11.15
2022-09-03T02:52:58.003Z,11.15
2022-09-03T02:55:26.665Z,11.12
2022-09-03T02:57:54.944Z,11.16
2022-09-03T03:00:23.344Z,11.16
2022-09-03T03:02:52.614Z,11.17
2022-09-03T03:05:28.142Z,11.20
2022-09-03T03:07:58.604Z,11.21
2022-09-03T03:10:26.964Z,11.21
2022-09-03T03:12:55.414Z,11.23
2022-09-03T03:15:23.525Z,11.20
2022-09-03T03:17:51.832Z,11.14
2022-09-03T03:20:20.132Z,11.13
2022-09-03T03:22:50.144Z,11.12
2022-09-03T03:25:18.803Z,11.13
2022-09-03T03:27:47.744Z,11.16
2022-09-03T03:30:16.382Z,11.23
2022-09-03T03:32:45.374Z,11.27
2022-09-03T03:35:13.745Z,11.26
2022-09-03T03:37:42.501Z,11.28
2022-09-03T03:40:13.304Z,11.29
2022-09-03T03:42:41.773Z,11.27
2022-09-03T03:45:11.115Z,11.28
2022-09-03T03:47:39.695Z,11.28
2022-09-03T03:50:08.623Z,11.26
2022-09-03T03:52:37.165Z,11.20
2022-09-03T03:55:06.944Z,11.14
2022-09-03T03:57:37.417Z,11.08
2022-09-03T04:00:06.594Z,11.02
2022-09-03T04:02:42.720Z,10.99
2022-09-03T04:05:11.589Z,10.97
2022-09-03T04:07:39.884Z,10.97
2022-09-03T04:10:09.845Z,10.96
2022-09-03T04:12:40.064Z,10.94
2022-09-03T04:15:09.285Z,10.89
2022-09-03T04:17:37.731Z,10.87
2022-09-03T04:20:07.131Z,10.80
2022-09-03T04:22:35.561Z,10.74
2022-09-03T04:25:03.802Z,10.68
2022-09-03T04:28:03.897Z,10.71
2022-09-03T04:30:32.167Z,10.72
2022-09-03T04:33:00.483Z,10.68
2022-09-03T04:35:34.175Z,10.64
2022-09-03T04:38:05.851Z,10.58
2022-09-03T04:40:34.360Z,10.54
2022-09-03T04:43:03.805Z,10.51
2022-09-03T04:45:32.519Z,10.46
2022-09-03T04:48:01.611Z,10.43
2022-09-03T04:50:31.981Z,10.44
2022-09-03T04:53:07.225Z,10.46
2022-09-03T04:55:36.811Z,10.48
2022-09-03T04:58:07.788Z,10.50
2022-09-03T05:00:37.831Z,10.52
2022-09-03T05:03:06.411Z,10.51
2022-09-03T05:05:34.803Z,10.42
2022-09-03T05:08:04.381Z,10.40
2022-09-03T05:10:32.990Z,10.40
2022-09-03T05:13:02.610Z,10.39
2022-09-03T05:15:33.322Z,10.31
2022-09-03T05:18:04.080Z,10.24
2022-09-03T05:20:33.230Z,10.25
2022-09-03T05:23:04.041Z,10.28
2022-09-03T05:25:33.226Z,10.29
2022-09-03T05:28:02.042Z,10.24
2022-09-03T05:30:31.744Z,10.22
2022-09-03T05:32:59.961Z,10.20
2022-09-03T05:35:30.082Z,10.23
2022-09-03T05:37:59.480Z,10.32
2022-09-03T05:40:28.111Z,10.43
2022-09-03T05:42:59.797Z,10.48
2022-09-03T05:45:28.050Z,10.55
2022-09-03T05:48:00.721Z,10.59
2022-09-03T05:50:29.281Z,10.58
2022-09-03T05:52:59.730Z,10.61
2022-09-03T05:55:29.170Z,10.64
2022-09-03T05:57:57.572Z,10.69
2022-09-03T06:00:25.721Z,10.73
2022-09-03T06:02:54.985Z,10.75
2022-09-03T06:05:24.380Z,10.82
2022-09-03T06:07:53.222Z,10.87
2022-09-03T06:10:26.009Z,10.88
2022-09-03T06:13:03.854Z,10.89
2022-09-03T06:15:33.151Z,10.91
2022-09-03T06:18:01.751Z,10.95
2022-09-03T06:20:36.797Z,11.03
2022-09-03T06:23:05.500Z,11.09
2022-09-03T06:25:33.520Z,11.12
2022-09-03T06:28:02.542Z,11.27
2022-09-03T06:30:30.741Z,11.33
2022-09-03T06:32:59.261Z,11.42
2022-09-03T06:35:27.351Z,11.52
2022-09-03T06:38:00.483Z,11.62
2022-09-03T06:40:28.824Z,11.77
2022-09-03T06:43:02.152Z,11.92
2022-09-03T06:45:31.628Z,12.06
2022-09-03T06:47:59.970Z,12.19
2022-09-03T06:50:31.368Z,12.29
2022-09-03T06:53:05.511Z,12.37
2022-09-03T06:55:33.831Z,12.44
2022-09-03T06:58:01.929Z,12.46
2022-09-03T07:00:30.806Z,12.51
2022-09-03T07:03:00.244Z,12.56
2022-09-03T07:05:29.431Z,12.63
2022-09-03T07:07:58.333Z,12.68
2022-09-03T07:10:28.085Z,12.74
2022-09-03T07:12:57.112Z,12.78
2022-09-03T07:15:26.377Z,12.80
2022-09-03T07:17:55.331Z,12.82
2022-09-03T07:20:23.813Z,12.82
2022-09-03T07:22:52.006Z,12.82
2022-09-03T07:25:21.041Z,12.84
2022-09-03T07:27:57.621Z,12.86
2022-09-03T07:30:38.081Z,12.91
2022-09-03T07:33:11.398Z,12.94
2022-09-03T07:35:45.335Z,13.02
2022-09-03T07:38:18.282Z,13.08
2022-09-03T07:40:47.250Z,13.18
2022-09-03T07:43:17.251Z,13.27
2022-09-03T07:45:52.261Z,13.36
2022-09-03T07:48:20.841Z,13.48
2022-09-03T07:50:49.101Z,13.57
2022-09-03T07:53:23.052Z,13.67
2022-09-03T07:55:51.961Z,13.85
2022-09-03T07:58:25.041Z,14.05
2022-09-03T08:00:54.057Z,14.15
2022-09-03T08:03:24.100Z,14.27
2022-09-03T08:05:54.921Z,14.39
2022-09-03T08:08:23.906Z,14.48
2022-09-03T08:10:52.164Z,14.56
2022-09-03T08:13:22.201Z,14.65
2022-09-03T08:15:56.780Z,14.77
2022-09-03T08:18:37.481Z,14.87
2022-09-03T08:21:08.921Z,14.96
2022-09-03T08:23:39.761Z,15.05
2022-09-03T08:26:08.562Z,15.08
2022-09-03T08:28:40.723Z,15.14
2022-09-03T08:31:19.060Z,15.21
2022-09-03T08:33:55.082Z,15.24
2022-09-03T08:36:30.300Z,15.21
2022-09-03T08:39:04.529Z,15.17
2022-09-03T08:41:47.790Z,15.23
2022-09-03T08:44:27.359Z,15.31
2022-09-03T08:47:02.444Z,15.36
2022-09-03T08:49:43.262Z,15.36
2022-09-03T08:52:25.797Z,15.34
2022-09-03T08:55:09.078Z,15.29
2022-09-03T08:57:49.601Z,15.23
2022-09-03T09:00:21.464Z,15.26
2022-09-03T09:03:05.191Z,15.36
2022-09-03T09:05:44.490Z,15.43
2022-09-03T09:08:22.387Z,15.49
2022-09-03T09:11:04.969Z,15.51
2022-09-03T09:13:44.666Z,15.57
2022-09-03T09:16:33.173Z,15.68
2022-09-03T09:19:23.420Z,15.87
2022-09-03T09:21:59.711Z,15.97
2022-09-03T09:24:38.946Z,16.13
2022-09-03T09:27:19.075Z,16.14
2022-09-03T09:30:09.174Z,16.14
2022-09-03T09:32:58.474Z,16.22
2022-09-03T09:36:04.157Z,16.32
2022-09-03T09:38:40.096Z,16.49
2022-09-03T09:42:01.594Z,16.71
2022-09-03T09:44:31.554Z,16.88
2022-09-03T09:47:16.356Z,17.01
2022-09-03T09:50:05.235Z,17.08
2022-09-03T09:52:41.376Z,17.05
2022-09-03T09:55:21.894Z,17.12
2022-09-03T09:58:10.945Z,17.17
2022-09-03T10:01:02.542Z,17.16
2022-09-03T10:03:39.535Z,17.15
2022-09-03T10:06:44.224Z,17.15
2022-09-03T10:09:22.994Z,17.34
2022-09-03T10:12:34.242Z,17.46
2022-09-03T10:15:18.534Z,17.51
2022-09-03T10:18:57.419Z,17.69
2022-09-03T10:28:50.455Z,17.66
2022-09-03T10:32:16.975Z,17.46
2022-09-03T10:35:24.192Z,17.41
2022-09-03T10:41:48.754Z,17.51
2022-09-03T10:45:13.392Z,17.61
2022-09-03T10:49:25.433Z,17.91
2022-09-03T11:15:12.606Z,17.90
2022-09-03T11:23:45.706Z,17.85
2022-09-03T11:25:30.776Z,18.00
2022-09-03T11:37:52.639Z,17.79
2022-09-03T12:18:07.211Z,18.10
2022-09-03T12:19:12.688Z,18.34
2022-09-03T12:23:12.579Z,18.66
2022-09-03T12:26:13.062Z,18.82
2022-09-03T12:30:54.514Z,18.99
2022-09-03T12:33:01.147Z,18.88
2022-09-03T12:36:08.970Z,19.00
2022-09-03T13:04:30.628Z,18.87
2022-09-03T13:08:15.955Z,18.83
2022-09-03T13:11:08.681Z,18.77
2022-09-03T13:14:39.750Z,18.74
2022-09-03T13:21:49.290Z,19.03
2022-09-03T13:25:29.247Z,19.09
2022-09-03T13:33:29.329Z,18.81
2022-09-03T13:41:06.171Z,18.46
2022-09-03T13:45:27.818Z,18.29
2022-09-03T13:56:08.534Z,17.92
2022-09-03T13:59:08.516Z,17.89
2022-09-03T14:15:31.258Z,17.48
2022-09-03T14:18:49.145Z,17.50
2022-09-03T14:21:51.877Z,17.50
2022-09-03T14:24:54.229Z,17.57
2022-09-03T14:31:49.480Z,17.83
2022-09-03T14:39:06.205Z,18.05
2022-09-03T14:42:34.537Z,18.07
2022-09-03T14:49:54.085Z,18.02
2022-09-03T14:53:46.355Z,18.07
2022-09-03T14:56:52.524Z,18.29
2022-09-03T15:00:24.076Z,18.48
2022-09-03T15:06:59.256Z,18.45
2022-09-03T15:13:51.543Z,18.66
2022-09-03T15:16:35.097Z,18.63
2022-09-03T15:19:17.563Z,18.51
2022-09-03T15:22:05.755Z,18.50
2022-09-03T15:24:57.797Z,18.42
2022-09-03T15:28:01.517Z,18.45
2022-09-03T15:30:54.232Z,18.50
2022-09-03T15:33:32.075Z,18.45
2022-09-03T15:36:16.914Z,18.40
2022-09-03T15:38:59.377Z,18.37
2022-09-03T15:41:42.235Z,18.33
2022-09-03T15:44:27.002Z,18.28
2022-09-03T15:50:47.245Z,18.17
2022-09-03T15:53:39.143Z,18.08
2022-09-03T15:56:26.521Z,17.98
2022-09-03T15:59:23.924Z,17.88
2022-09-03T16:02:12.073Z,17.78
2022-09-03T16:05:07.729Z,17.73
2022-09-03T16:08:03.482Z,17.75
2022-09-03T16:10:48.035Z,17.81
2022-09-03T16:13:39.598Z,17.81
2022-09-03T16:16:28.613Z,17.87
2022-09-03T16:19:17.864Z,17.96
2022-09-03T16:21:55.923Z,18.05
2022-09-03T16:24:31.472Z,18.13
2022-09-03T16:27:05.242Z,18.17
2022-09-03T16:29:35.012Z,18.18
2022-09-03T16:32:19.409Z,18.16
2022-09-03T16:35:02.045Z,18.15
2022-09-03T16:37:36.892Z,18.13
2022-09-03T16:40:17.032Z,18.10
2022-09-03T16:42:51.890Z,18.04
2022-09-03T16:45:40.792Z,17.97
2022-09-03T16:48:21.873Z,17.89
2022-09-03T16:51:07.851Z,17.88
2022-09-03T16:53:53.531Z,17.83
2022-09-03T16:56:38.763Z,17.75
2022-09-03T16:59:21.402Z,17.65
2022-09-03T17:02:13.872Z,17.61
2022-09-03T17:05:10.663Z,17.50
2022-09-03T17:07:59.103Z,17.48
2022-09-03T17:10:41.937Z,17.45
2022-09-03T17:13:17.478Z,17.42
2022-09-03T17:15:50.823Z,17.42
2022-09-03T17:18:31.723Z,17.39
2022-09-03T17:21:11.743Z,17.31
2022-09-03T17:24:02.442Z,17.29
2022-09-03T17:26:40.222Z,17.28
2022-09-03T17:29:26.402Z,17.25
2022-09-03T17:32:12.342Z,17.10
2022-09-03T17:34:54.851Z,16.99
2022-09-03T17:37:36.210Z,16.96
2022-09-03T17:40:20.162Z,16.94
2022-09-03T17:42:55.990Z,16.88
2022-09-03T17:45:39.441Z,16.83
2022-09-03T17:48:23.522Z,16.70
2022-09-03T17:51:01.922Z,16.60
2022-09-03T17:53:40.608Z,16.55
2022-09-03T17:56:13.130Z,16.49
2022-09-03T17:58:51.463Z,16.39
2022-09-03T18:01:26.198Z,16.28
2022-09-03T18:03:56.988Z,16.25
2022-09-03T18:06:34.982Z,16.19
2022-09-03T18:09:07.804Z,16.13
2022-09-03T18:11:39.772Z,16.05
2022-09-03T18:14:18.470Z,15.97
2022-09-03T18:16:53.364Z,15.94
2022-09-03T18:19:30.730Z,15.91
2022-09-03T18:22:21.003Z,15.82
2022-09-03T18:25:13.662Z,15.74
2022-09-03T18:28:03.250Z,15.71
2022-09-03T18:30:48.961Z,15.63
2022-09-03T18:33:40.261Z,15.64
2022-09-03T18:36:27.022Z,15.64
2022-09-03T18:39:19.145Z,15.58
2022-09-03T18:42:18.902Z,15.47
2022-09-03T18:45:22.013Z,15.38
2022-09-03T18:48:23.989Z,15.26
2022-09-03T18:51:17.523Z,15.19
2022-09-03T18:54:13.803Z,15.13
2022-09-03T18:57:06.561Z,15.05
2022-09-03T19:00:09.860Z,14.99
2022-09-03T19:03:06.090Z,14.98
2022-09-03T19:06:01.331Z,14.96
2022-09-03T19:08:55.111Z,14.94
2022-09-03T19:11:50.159Z,14.88
2022-09-03T19:14:48.300Z,14.80
2022-09-03T19:17:41.940Z,14.73
2022-09-03T19:20:33.780Z,14.75
2022-09-03T19:23:21.913Z,14.67
2022-09-03T19:26:08.585Z,14.63
2022-09-03T19:29:01.280Z,14.62
2022-09-03T19:32:00.030Z,14.54
2022-09-03T19:35:01.450Z,14.39
2022-09-03T19:37:53.621Z,14.30
2022-09-03T19:40:56.775Z,14.28
2022-09-03T19:43:51.957Z,14.21
2022-09-03T19:46:48.170Z,14.21
2022-09-03T19:49:45.021Z,14.11
2022-09-03T19:52:42.750Z,13.97
2022-09-03T19:55:34.901Z,13.84
2022-09-03T19:58:41.972Z,13.72
2022-09-03T20:01:27.619Z,13.58
2022-09-03T20:04:15.369Z,13.45
2022-09-03T20:07:04.266Z,13.40
2022-09-03T20:09:56.380Z,13.30
2022-09-03T20:12:26.313Z,13.24
2022-09-03T20:14:54.981Z,13.24
2022-09-03T20:17:35.372Z,13.20
2022-09-03T20:20:14.572Z,13.14
2022-09-03T20:22:52.583Z,13.07
2022-09-03T20:25:38.040Z,13.01
2022-09-03T20:28:16.343Z,12.96
2022-09-03T20:30:51.527Z,12.95
2022-09-03T20:33:31.883Z,12.92
2022-09-03T20:36:13.248Z,12.99
2022-09-03T20:38:57.828Z,13.07
2022-09-03T20:41:34.260Z,13.08
2022-09-03T20:44:22.070Z,13.10
2022-09-03T20:47:03.257Z,13.06
2022-09-03T20:49:41.664Z,13.00
2022-09-03T20:52:18.526Z,12.98
2022-09-03T20:55:04.110Z,12.94
2022-09-03T20:57:44.940Z,12.93
2022-09-03T21:00:18.465Z,12.89
2022-09-03T21:03:03.681Z,12.85
2022-09-03T21:05:35.660Z,12.79
2022-09-03T21:08:13.611Z,12.77
2022-09-03T21:10:52.113Z,12.72
2022-09-03T21:13:33.092Z,12.68
2022-09-03T21:16:20.502Z,12.68
2022-09-03T21:19:00.241Z,12.66
2022-09-03T21:21:40.690Z,12.64
2022-09-03T21:24:15.710Z,12.65
2022-09-03T21:26:52.001Z,12.64
2022-09-03T21:29:26.691Z,12.64
2022-09-03T21:32:04.220Z,12.65
2022-09-03T21:34:39.011Z,12.68
2022-09-03T21:37:11.889Z,12.69
2022-09-03T21:39:44.382Z,12.72
2022-09-03T21:42:23.190Z,12.73
2022-09-03T21:44:57.490Z,12.82
2022-09-03T21:47:28.110Z,12.87
2022-09-03T21:50:14.410Z,12.90
2022-09-03T21:52:51.531Z,12.90
2022-09-03T21:55:23.742Z,12.92
2022-09-03T21:58:08.062Z,12.89
2022-09-03T22:00:37.785Z,12.90
2022-09-03T22:03:09.559Z,12.90
2022-09-03T22:05:49.754Z,12.88
2022-09-03T22:08:24.540Z,12.91
2022-09-03T22:11:00.202Z,12.93
2022-09-03T22:13:33.411Z,12.94
2022-09-03T22:16:13.457Z,12.97
2022-09-03T22:18:44.234Z,13.00
2022-09-03T22:21:19.713Z,12.98
2022-09-03T22:24:04.271Z,13.02
2022-09-03T22:26:45.688Z,13.10
2022-09-03T22:29:28.380Z,13.08
2022-09-03T22:32:04.050Z,13.08
2022-09-03T22:34:52.811Z,13.13
2022-09-03T22:37:33.929Z,13.21
2022-09-03T22:40:13.191Z,13.19
2022-09-03T22:42:57.272Z,13.18
2022-09-03T22:45:41.514Z,13.19
2022-09-03T22:48:21.851Z,13.26
2022-09-03T22:50:57.141Z,13.31
2022-09-03T22:53:40.912Z,13.33
2022-09-03T22:56:09.491Z,13.38
2022-09-03T22:58:43.787Z,13.40
2022-09-03T23:01:18.960Z,13.39
2022-09-03T23:03:59.746Z,13.38
2022-09-03T23:06:33.591Z,13.35
2022-09-03T23:09:05.640Z,13.36
2022-09-03T23:11:39.626Z,13.37
2022-09-03T23:14:12.438Z,13.39
2022-09-03T23:16:47.058Z,13.40
2022-09-03T23:21:53.599Z,13.38
2022-09-03T23:24:28.270Z,13.37
2022-09-03T23:26:56.493Z,13.39
2022-09-03T23:29:30.161Z,13.41
2022-09-03T23:32:01.304Z,13.42
2022-09-03T23:34:29.592Z,13.45
2022-09-03T23:37:33.375Z,13.45
2022-09-03T23:40:22.381Z,13.43
2022-09-03T23:43:08.701Z,13.44
2022-09-03T23:45:48.187Z,13.42
2022-09-03T23:48:29.953Z,13.42
2022-09-03T23:51:09.230Z,13.39
2022-09-03T23:53:48.651Z,13.34
2022-09-03T23:56:41.370Z,13.33
2022-09-03T23:59:17.440Z,13.31
